createdAt,value
2019-06-26T00:00:19.921Z,3.50
2019-06-26T00:02:50.200Z,3.30
2019-06-26T00:05:20.378Z,3.20
2019-06-26T00:07:50.870Z,3.80
2019-06-26T00:10:20.958Z,3.67
2019-06-26T00:12:50.895Z,4.10
2019-06-26T00:15:21.512Z,3.53
2019-06-26T00:17:51.937Z,3.87
2019-06-26T00:20:22.140Z,3.30
2019-06-26T00:22:52.694Z,4.10
2019-06-26T00:25:22.773Z,3.70
2019-06-26T00:27:52.904Z,3.90
2019-06-26T00:30:23.305Z,3.50
2019-06-26T00:32:53.512Z,3.40
2019-06-26T00:35:23.534Z,3.70
2019-06-26T00:37:53.723Z,3.60
2019-06-26T00:40:23.554Z,3.80
2019-06-26T00:42:53.493Z,3.47
2019-06-26T00:45:23.755Z,3.70
2019-06-26T00:47:53.712Z,3.63
2019-06-26T00:50:23.776Z,3.47
2019-06-26T00:52:54.444Z,3.97
2019-06-26T00:55:24.559Z,3.53
2019-06-26T00:57:54.591Z,3.40
2019-06-26T01:00:31.964Z,3.50
2019-06-26T01:03:02.100Z,4.20
2019-06-26T01:05:31.938Z,3.90
2019-06-26T01:08:02.082Z,3.67
2019-06-26T01:10:32.125Z,3.57
2019-06-26T01:13:02.055Z,3.47
2019-06-26T01:15:32.372Z,3.77
2019-06-26T01:18:02.972Z,4.10
2019-06-26T01:20:33.394Z,3.87
2019-06-26T01:23:03.432Z,4.00
2019-06-26T01:25:33.620Z,3.93
2019-06-26T01:28:04.032Z,4.40
2019-06-26T01:30:34.034Z,4.10
2019-06-26T01:33:04.171Z,4.30
2019-06-26T01:35:34.613Z,3.67
2019-06-26T01:38:04.766Z,3.50
2019-06-26T01:40:34.981Z,4.13
2019-06-26T01:43:04.871Z,3.60
2019-06-26T01:45:34.823Z,4.00
2019-06-26T01:48:05.398Z,4.23
2019-06-26T01:50:35.804Z,3.77
2019-06-26T01:53:05.956Z,3.90
2019-06-26T01:55:37.935Z,3.60
2019-06-26T01:58:08.817Z,4.17
2019-06-26T02:00:40.122Z,4.00
2019-06-26T02:03:10.598Z,4.10
2019-06-26T02:05:40.553Z,4.00
2019-06-26T02:08:10.445Z,4.30
2019-06-26T02:10:40.792Z,3.70
2019-06-26T02:13:11.192Z,3.90
2019-06-26T02:15:41.104Z,4.30
2019-06-26T02:18:30.453Z,4.00
2019-06-26T02:21:00.467Z,4.00
2019-06-26T02:23:30.419Z,3.70
2019-06-26T02:26:00.780Z,4.30
2019-06-26T02:28:30.709Z,3.63
2019-06-26T02:31:00.578Z,4.43
2019-06-26T02:33:30.417Z,3.60
2019-06-26T02:36:00.296Z,4.33
2019-06-26T02:38:30.646Z,4.53
2019-06-26T02:41:00.904Z,4.27
2019-06-26T02:43:30.822Z,4.57
2019-06-26T02:46:01.870Z,3.80
2019-06-26T02:48:32.707Z,3.60
2019-06-26T02:51:03.662Z,3.90
2019-06-26T02:53:33.596Z,4.10
2019-06-26T02:56:03.422Z,4.10
2019-06-26T02:58:33.694Z,4.23
2019-06-26T03:01:03.611Z,4.50
2019-06-26T03:03:33.531Z,4.67
2019-06-26T03:06:03.384Z,4.23
2019-06-26T03:08:33.245Z,4.37
2019-06-26T03:11:03.513Z,4.87
2019-06-26T03:13:33.539Z,4.70
2019-06-26T03:16:03.373Z,4.90
2019-06-26T03:18:33.343Z,4.20
2019-06-26T03:21:03.431Z,5.10
2019-06-26T03:23:33.826Z,4.40
2019-06-26T03:26:03.645Z,4.30
2019-06-26T03:28:33.556Z,4.70
2019-06-26T03:31:05.109Z,4.07
2019-06-26T03:33:35.016Z,4.37
2019-06-26T03:36:05.053Z,5.00
2019-06-26T03:38:35.605Z,4.10
2019-06-26T03:41:05.522Z,4.70
2019-06-26T03:43:35.880Z,4.27
2019-06-26T03:46:06.098Z,4.50
2019-06-26T03:48:36.006Z,4.37
2019-06-26T03:51:05.991Z,4.83
2019-06-26T03:53:37.372Z,4.70
2019-06-26T03:56:07.290Z,4.90
2019-06-26T03:58:37.256Z,5.13
2019-06-26T04:01:07.567Z,4.30
2019-06-26T04:03:37.566Z,4.40
2019-06-26T04:06:07.326Z,5.00
2019-06-26T04:08:37.581Z,4.80
2019-06-26T04:11:07.717Z,4.80
2019-06-26T04:13:37.718Z,4.60
2019-06-26T04:16:08.277Z,4.10
2019-06-26T04:18:38.070Z,4.67
2019-06-26T04:21:07.976Z,5.00
2019-06-26T04:23:38.279Z,5.03
2019-06-26T04:26:08.113Z,4.70
2019-06-26T04:28:37.962Z,5.27
2019-06-26T04:31:08.413Z,5.00
2019-06-26T04:33:38.577Z,4.83
2019-06-26T04:36:08.432Z,4.20
2019-06-26T04:38:38.627Z,4.57
2019-06-26T04:41:08.490Z,5.03
2019-06-26T04:43:38.741Z,5.00
2019-06-26T04:46:08.682Z,4.20
2019-06-26T04:48:38.711Z,5.17
2019-06-26T04:51:09.234Z,4.80
2019-06-26T04:53:39.209Z,4.67
2019-06-26T04:56:09.137Z,4.50
2019-06-26T04:58:39.279Z,4.80
2019-06-26T05:01:09.377Z,4.80
2019-06-26T05:03:39.344Z,4.80
2019-06-26T05:06:09.723Z,4.20
2019-06-26T05:08:39.558Z,4.77
2019-06-26T05:11:12.466Z,5.13
2019-06-26T05:13:41.340Z,4.40
2019-06-26T05:16:15.687Z,4.93
2019-06-26T05:18:43.342Z,5.00
2019-06-26T05:21:13.790Z,4.93
2019-06-26T05:23:44.393Z,5.07
2019-06-26T05:26:14.507Z,4.60
2019-06-26T05:28:44.754Z,5.00
2019-06-26T05:31:14.596Z,5.00
2019-06-26T05:33:44.510Z,5.10
2019-06-26T05:36:14.792Z,5.03
2019-06-26T05:38:44.787Z,5.23
2019-06-26T05:41:14.638Z,4.77
2019-06-26T05:43:45.081Z,4.53
2019-06-26T05:46:30.022Z,4.23
2019-06-26T05:48:46.854Z,4.50
2019-06-26T05:51:17.439Z,5.90
2019-06-26T05:53:47.464Z,4.67
2019-06-26T05:56:17.251Z,5.00
2019-06-26T05:58:47.821Z,4.53
2019-06-26T06:01:18.398Z,4.57
2019-06-26T06:03:48.257Z,4.43
2019-06-26T06:06:18.540Z,4.70
2019-06-26T06:08:49.296Z,5.40
2019-06-26T06:11:21.565Z,4.30
2019-06-26T06:13:51.967Z,4.70
2019-06-26T06:16:22.029Z,4.43
2019-06-26T06:18:54.555Z,4.63
2019-06-26T06:21:25.593Z,4.20
2019-06-26T06:23:58.435Z,4.60
2019-06-26T06:26:28.471Z,4.20
2019-06-26T06:28:58.653Z,4.40
2019-06-26T06:31:29.396Z,5.00
2019-06-26T06:33:59.310Z,4.77
2019-06-26T06:36:29.977Z,4.33
2019-06-26T06:38:59.976Z,4.80
2019-06-26T06:41:29.992Z,4.07
2019-06-26T06:44:00.501Z,4.63
2019-06-26T06:46:30.677Z,4.60
2019-06-26T06:49:00.558Z,4.33
2019-06-26T06:51:31.023Z,4.70
2019-06-26T06:54:00.877Z,5.13
2019-06-26T06:56:30.777Z,5.33
2019-06-26T06:59:01.038Z,5.00
2019-06-26T07:01:31.540Z,4.50
2019-06-26T07:04:01.483Z,4.30
2019-06-26T07:06:31.674Z,4.80
2019-06-26T07:09:02.014Z,4.07
2019-06-26T07:11:32.440Z,4.10
2019-06-26T07:14:02.759Z,5.13
2019-06-26T07:16:32.747Z,4.70
2019-06-26T07:19:02.884Z,3.83
2019-06-26T07:21:33.401Z,4.50
2019-06-26T07:24:04.864Z,4.00
2019-06-26T07:26:35.763Z,3.83
2019-06-26T07:29:06.657Z,4.10
2019-06-26T07:31:38.583Z,4.43
2019-06-26T07:34:08.808Z,4.80
2019-06-26T07:36:39.638Z,4.43
2019-06-26T07:39:10.477Z,3.90
2019-06-26T07:41:41.645Z,4.30
2019-06-26T07:44:12.096Z,4.37
2019-06-26T07:46:43.096Z,4.23
2019-06-26T07:49:14.416Z,4.83
2019-06-26T07:51:44.494Z,5.13
2019-06-26T07:54:14.924Z,4.10
2019-06-26T07:56:45.530Z,4.70
2019-06-26T07:59:23.143Z,4.23
2019-06-26T08:01:54.393Z,4.60
2019-06-26T08:04:24.331Z,4.23
2019-06-26T08:06:55.343Z,4.30
2019-06-26T08:09:25.282Z,4.90
2019-06-26T08:11:55.409Z,4.60
2019-06-26T08:14:26.118Z,4.73
2019-06-26T08:16:56.548Z,4.67
2019-06-26T08:19:29.863Z,4.80
2019-06-26T08:22:00.359Z,4.10
2019-06-26T08:24:30.450Z,4.17
2019-06-26T08:27:00.389Z,4.43
2019-06-26T08:29:30.793Z,5.13
2019-06-26T08:32:01.161Z,4.23
2019-06-26T08:34:32.184Z,5.03
2019-06-26T08:37:06.564Z,5.17
2019-06-26T08:39:39.347Z,4.90
2019-06-26T08:42:09.936Z,5.00
2019-06-26T08:44:39.947Z,4.40
2019-06-26T08:47:10.730Z,4.33
2019-06-26T08:49:43.170Z,4.80
2019-06-26T08:52:13.945Z,4.67
2019-06-26T08:54:46.049Z,4.33
2019-06-26T08:57:16.995Z,4.47
2019-06-26T08:59:46.987Z,3.80
2019-06-26T09:02:17.414Z,4.83
2019-06-26T09:04:48.694Z,4.87
2019-06-26T09:07:18.633Z,5.20
2019-06-26T09:09:51.500Z,4.60
2019-06-26T09:12:22.641Z,4.80
2019-06-26T09:14:52.819Z,4.63
2019-06-26T09:17:22.950Z,4.50
2019-06-26T09:19:55.945Z,4.57
2019-06-26T09:22:26.262Z,4.87
2019-06-26T09:24:56.283Z,4.43
2019-06-26T09:27:27.665Z,5.30
2019-06-26T09:29:57.418Z,4.43
2019-06-26T09:32:28.625Z,4.77
2019-06-26T09:34:59.314Z,4.20
2019-06-26T09:37:30.137Z,4.23
2019-06-26T09:40:00.631Z,4.37
2019-06-26T09:42:36.824Z,4.77
2019-06-26T09:45:07.941Z,4.63
2019-06-26T09:47:38.718Z,4.40
2019-06-26T09:50:10.460Z,4.40
2019-06-26T09:52:40.795Z,4.27
2019-06-26T09:55:12.013Z,4.47
2019-06-26T09:57:45.184Z,4.20
2019-06-26T10:00:17.819Z,4.50
2019-06-26T10:02:47.726Z,5.13
2019-06-26T10:05:18.058Z,4.20
2019-06-26T10:07:48.317Z,3.90
2019-06-26T10:10:18.629Z,3.97
2019-06-26T10:12:48.885Z,4.10
2019-06-26T10:15:19.739Z,4.10
2019-06-26T10:17:50.008Z,4.40
2019-06-26T10:20:20.939Z,4.17
2019-06-26T10:22:50.780Z,4.03
2019-06-26T10:25:23.313Z,4.40
2019-06-26T10:27:53.550Z,4.30
2019-06-26T10:30:26.654Z,4.10
2019-06-26T10:32:56.777Z,4.70
2019-06-26T10:35:31.608Z,4.07
2019-06-26T10:38:02.178Z,4.20
2019-06-26T10:40:33.235Z,4.00
2019-06-26T10:43:03.145Z,4.30
2019-06-26T10:45:40.328Z,4.90
2019-06-26T10:48:10.390Z,4.47
2019-06-26T10:50:51.942Z,4.00
2019-06-26T10:53:16.304Z,4.40
2019-06-26T10:55:46.834Z,4.17
2019-06-26T10:58:17.052Z,4.20
2019-06-26T11:00:47.919Z,4.20
2019-06-26T11:03:18.228Z,4.20
2019-06-26T11:05:48.667Z,4.30
2019-06-26T11:08:19.571Z,4.70
2019-06-26T11:10:58.404Z,3.97
2019-06-26T11:13:29.558Z,4.43
2019-06-26T11:16:04.327Z,4.20
2019-06-26T11:18:43.169Z,4.20
2019-06-26T11:21:13.200Z,4.30
2019-06-26T11:23:44.378Z,4.13
2019-06-26T11:26:14.676Z,3.67
2019-06-26T11:28:45.608Z,4.00
2019-06-26T11:31:16.078Z,4.30
2019-06-26T11:33:46.008Z,4.60
2019-06-26T11:36:16.694Z,4.23
2019-06-26T11:38:47.213Z,4.30
2019-06-26T11:41:17.832Z,4.30
2019-06-26T11:43:48.948Z,4.50
2019-06-26T11:46:19.067Z,4.23
2019-06-26T11:48:52.285Z,4.80
2019-06-26T11:51:23.561Z,4.67
2019-06-26T11:53:53.993Z,4.30
2019-06-26T11:56:29.228Z,4.57
2019-06-26T11:59:01.291Z,5.03
2019-06-26T12:01:31.487Z,5.10
2019-06-26T12:04:03.026Z,4.53
2019-06-26T12:06:32.997Z,4.37
2019-06-26T12:09:04.778Z,4.33
2019-06-26T12:11:36.238Z,4.20
2019-06-26T12:14:06.513Z,4.67
2019-06-26T12:16:39.713Z,4.63
2019-06-26T12:19:09.560Z,4.63
2019-06-26T12:21:42.811Z,5.10
2019-06-26T12:24:13.883Z,4.90
2019-06-26T12:26:44.140Z,5.10
2019-06-26T12:29:14.681Z,4.03
2019-06-26T12:31:46.295Z,4.57
2019-06-26T12:34:21.538Z,5.10
2019-06-26T12:36:51.797Z,4.43
2019-06-26T12:39:22.575Z,4.73
2019-06-26T12:41:54.384Z,4.50
2019-06-26T12:44:28.898Z,4.50
2019-06-26T12:47:01.814Z,4.87
2019-06-26T12:49:32.882Z,4.20
2019-06-26T12:52:05.434Z,4.80
2019-06-26T12:54:35.653Z,4.97
2019-06-26T12:57:06.689Z,4.30
2019-06-26T12:59:37.726Z,4.20
2019-06-26T13:02:08.826Z,4.43
2019-06-26T13:04:39.165Z,3.93
2019-06-26T13:07:11.153Z,4.30
2019-06-26T13:09:44.114Z,4.60
2019-06-26T13:12:15.482Z,5.13
2019-06-26T13:14:52.048Z,4.55
2019-06-26T13:17:23.410Z,5.33
2019-06-26T13:19:56.633Z,4.60
2019-06-26T13:22:31.294Z,4.83
2019-06-26T13:25:06.177Z,4.30
2019-06-26T13:27:44.568Z,4.20
2019-06-26T13:30:22.828Z,4.70
2019-06-26T13:32:54.604Z,4.40
2019-06-26T13:35:27.045Z,4.23
2019-06-26T13:37:57.636Z,4.33
2019-06-26T13:40:30.662Z,4.93
2019-06-26T13:43:01.909Z,4.20
2019-06-26T13:45:33.817Z,4.77
2019-06-26T13:48:08.758Z,4.73
2019-06-26T13:50:39.952Z,4.23
2019-06-26T13:53:11.188Z,4.67
2019-06-26T13:55:44.458Z,4.53
2019-06-26T13:58:15.869Z,5.17
2019-06-26T14:00:51.141Z,4.63
2019-06-26T14:03:21.859Z,4.70
2019-06-26T14:05:52.122Z,5.50
2019-06-26T14:08:23.278Z,6.00
2019-06-26T14:10:54.124Z,5.50
2019-06-26T14:13:28.418Z,5.60
2019-06-26T14:15:58.988Z,5.57
2019-06-26T14:18:30.578Z,4.97
2019-06-26T14:21:03.010Z,5.23
2019-06-26T14:23:37.648Z,5.70
2019-06-26T14:26:08.454Z,5.30
2019-06-26T14:28:42.411Z,4.70
2019-06-26T14:31:14.903Z,5.80
2019-06-26T14:33:45.187Z,6.40
2019-06-26T14:36:23.501Z,5.50
2019-06-26T14:39:03.776Z,5.63
2019-06-26T14:41:39.407Z,5.13
2019-06-26T14:44:17.705Z,5.62
2019-06-26T14:46:48.829Z,5.03
2019-06-26T14:49:26.270Z,5.47
2019-06-26T14:52:00.735Z,5.00
2019-06-26T14:54:32.206Z,5.75
2019-06-26T14:57:03.028Z,5.30
2019-06-26T14:59:35.157Z,5.08
2019-06-26T15:02:07.600Z,5.50
2019-06-26T15:04:41.376Z,5.47
2019-06-26T15:07:11.891Z,5.65
2019-06-26T15:09:43.602Z,5.00
2019-06-26T15:12:15.251Z,5.40
2019-06-26T15:14:45.875Z,5.15
2019-06-26T15:17:16.999Z,5.83
2019-06-26T15:19:49.080Z,6.20
2019-06-26T15:22:21.109Z,5.37
2019-06-26T15:24:54.213Z,4.90
2019-06-26T15:27:26.084Z,5.20
2019-06-26T15:29:57.552Z,5.40
2019-06-26T15:32:28.076Z,6.20
2019-06-26T15:35:07.384Z,4.45
2019-06-26T15:37:37.107Z,4.92
2019-06-26T15:40:15.702Z,5.80
2019-06-26T15:42:52.137Z,5.80
2019-06-26T15:46:14.542Z,5.70
2019-06-26T15:48:50.200Z,4.70
2019-06-26T15:51:23.709Z,5.33
2019-06-26T15:53:54.111Z,5.50
2019-06-26T15:56:31.686Z,5.70
2019-06-26T15:59:05.617Z,5.87
2019-06-26T16:01:44.426Z,5.53
2019-06-26T16:04:35.109Z,5.78
2019-06-26T16:07:29.728Z,5.50
2019-06-26T16:12:53.600Z,5.28
2019-06-26T16:15:27.767Z,5.22
2019-06-26T16:18:27.023Z,4.97
2019-06-26T16:21:11.734Z,4.58
2019-06-26T16:23:44.169Z,4.67
2019-06-26T16:26:18.165Z,4.62
2019-06-26T16:28:54.897Z,4.58
2019-06-26T16:31:26.883Z,4.83
2019-06-26T16:33:57.806Z,4.83
2019-06-26T16:36:42.442Z,5.10
2019-06-26T16:39:14.389Z,5.33
2019-06-26T16:41:48.974Z,4.72
2019-06-26T16:44:27.118Z,5.12
2019-06-26T16:47:11.042Z,5.30
2019-06-26T16:49:42.847Z,4.83
2019-06-26T16:52:17.285Z,4.22
2019-06-26T16:54:48.397Z,5.47
2019-06-26T16:57:23.010Z,5.42
2019-06-26T17:00:08.742Z,4.30
2019-06-26T17:02:33.212Z,4.80
2019-06-26T17:05:03.868Z,4.42
2019-06-26T17:07:41.138Z,4.92
2019-06-26T17:10:14.396Z,4.78
2019-06-26T17:12:48.860Z,4.92
2019-06-26T17:15:21.640Z,4.40
2019-06-26T17:17:55.123Z,4.25
2019-06-26T17:20:28.862Z,4.90
2019-06-26T17:23:05.560Z,4.62
2019-06-26T17:25:36.373Z,4.47
2019-06-26T17:28:11.527Z,4.62
2019-06-26T17:30:48.633Z,4.80
2019-06-26T17:33:29.563Z,5.80
2019-06-26T17:36:02.666Z,5.40
2019-06-26T17:38:39.683Z,5.50
2019-06-26T17:41:15.329Z,5.28
2019-06-26T17:43:51.957Z,5.28
2019-06-26T17:46:28.016Z,4.78
2019-06-26T17:48:58.793Z,4.60
2019-06-26T17:51:30.647Z,4.78
2019-06-26T17:54:07.320Z,5.70
2019-06-26T17:56:37.845Z,5.03
2019-06-26T17:59:10.014Z,5.07
2019-06-26T18:01:41.265Z,5.70
2019-06-26T18:04:13.414Z,4.97
2019-06-26T18:06:48.649Z,5.83
2019-06-26T18:09:19.981Z,5.40
2019-06-26T18:11:51.322Z,5.30
2019-06-26T18:14:22.919Z,6.17
2019-06-26T18:16:56.889Z,5.80
2019-06-26T18:19:29.959Z,5.90
2019-06-26T18:22:01.579Z,6.97
2019-06-26T18:24:32.837Z,6.23
2019-06-26T18:27:06.487Z,6.07
2019-06-26T18:29:37.083Z,6.33
2019-06-26T18:32:12.236Z,5.87
2019-06-26T18:34:42.864Z,6.33
2019-06-26T18:37:12.976Z,5.77
2019-06-26T18:39:43.238Z,5.70
2019-06-26T18:42:16.534Z,5.60
2019-06-26T18:44:48.428Z,6.57
2019-06-26T18:47:25.063Z,5.80
2019-06-26T18:49:57.372Z,6.20
2019-06-26T18:52:28.787Z,6.17
2019-06-26T18:54:59.795Z,6.10
2019-06-26T18:57:34.354Z,6.53
2019-06-26T19:00:07.369Z,6.10
2019-06-26T19:02:39.197Z,6.63
2019-06-26T19:05:09.935Z,6.27
2019-06-26T19:07:44.309Z,6.17
2019-06-26T19:10:15.093Z,6.83
2019-06-26T19:12:53.195Z,6.83
2019-06-26T19:15:24.664Z,6.37
2019-06-26T19:17:55.131Z,6.30
2019-06-26T19:20:26.864Z,6.70
2019-06-26T19:23:04.821Z,6.23
2019-06-26T19:25:35.189Z,6.20
2019-06-26T19:28:06.292Z,6.17
2019-06-26T19:30:37.409Z,6.80
2019-06-26T19:33:07.852Z,5.97
2019-06-26T19:35:39.275Z,6.37
2019-06-26T19:38:10.035Z,6.50
2019-06-26T19:40:40.816Z,6.70
2019-06-26T19:43:14.589Z,6.67
2019-06-26T19:45:44.622Z,6.53
2019-06-26T19:48:16.273Z,6.10
2019-06-26T19:50:46.827Z,6.00
2019-06-26T19:53:17.453Z,6.33
2019-06-26T19:55:48.074Z,6.97
2019-06-26T19:58:21.421Z,6.80
2019-06-26T20:00:50.575Z,6.40
2019-06-26T20:03:22.395Z,6.80
2019-06-26T20:05:57.133Z,7.00
2019-06-26T20:08:28.824Z,6.33
2019-06-26T20:11:02.119Z,6.50
2019-06-26T20:13:32.822Z,6.50
2019-06-26T20:16:07.607Z,6.23
2019-06-26T20:18:45.237Z,6.97
2019-06-26T20:21:20.161Z,7.60
2019-06-26T20:23:53.192Z,6.57
2019-06-26T20:26:28.194Z,7.90
2019-06-26T20:29:09.629Z,6.97
2019-06-26T20:31:45.198Z,7.70
2019-06-26T20:34:19.580Z,7.23
2019-06-26T20:36:54.208Z,7.63
2019-06-26T20:39:25.979Z,8.03
2019-06-26T20:41:57.305Z,7.33
2019-06-26T20:44:32.588Z,8.67
2019-06-26T20:47:08.242Z,6.93
2019-06-26T20:49:52.150Z,8.00
2019-06-26T20:52:14.307Z,8.20
2019-06-26T20:55:01.173Z,7.83
2019-06-26T20:57:25.209Z,7.93
2019-06-26T20:59:55.803Z,7.37
2019-06-26T21:02:27.405Z,7.77
2019-06-26T21:04:58.138Z,7.63
2019-06-26T21:07:30.572Z,7.93
2019-06-26T21:10:03.753Z,8.20
2019-06-26T21:12:35.619Z,8.47
2019-06-26T21:15:13.010Z,7.30
2019-06-26T21:17:44.380Z,7.70
2019-06-26T21:20:14.723Z,7.27
2019-06-26T21:22:45.821Z,7.90
2019-06-26T21:25:19.385Z,7.30
2019-06-26T21:27:50.450Z,7.40
2019-06-26T21:30:26.101Z,6.83
2019-06-26T21:32:56.464Z,7.67
2019-06-26T21:35:27.347Z,7.00
2019-06-26T21:37:58.889Z,7.50
2019-06-26T21:40:32.150Z,7.20
2019-06-26T21:43:02.557Z,7.20
2019-06-26T21:45:32.906Z,6.80
2019-06-26T21:48:05.065Z,6.43
2019-06-26T21:50:37.734Z,7.40
2019-06-26T21:53:08.106Z,6.60
2019-06-26T21:55:38.147Z,7.83
2019-06-26T21:58:10.173Z,7.13
2019-06-26T22:00:42.951Z,6.70
2019-06-26T22:03:13.981Z,6.67
2019-06-26T22:05:46.505Z,7.07
2019-06-26T22:08:17.677Z,7.07
2019-06-26T22:10:48.654Z,6.17
2019-06-26T22:13:22.336Z,6.10
2019-06-26T22:16:00.161Z,6.80
2019-06-26T22:18:31.996Z,6.87
2019-06-26T22:21:03.739Z,6.80
2019-06-26T22:23:33.895Z,6.93
2019-06-26T22:26:05.170Z,6.83
2019-06-26T22:28:35.302Z,6.80
2019-06-26T22:31:10.261Z,6.53
2019-06-26T22:33:40.946Z,6.37
2019-06-26T22:36:11.597Z,6.30
2019-06-26T22:38:41.900Z,6.20
2019-06-26T22:41:12.645Z,6.00
2019-06-26T22:43:46.310Z,6.07
2019-06-26T22:46:20.393Z,6.20
2019-06-26T22:48:51.286Z,6.20
2019-06-26T22:51:23.440Z,6.50
2019-06-26T22:53:53.734Z,6.50
2019-06-26T22:56:24.484Z,6.53
2019-06-26T22:58:56.486Z,6.20
2019-06-26T23:01:27.271Z,5.90
2019-06-26T23:03:57.776Z,6.30
2019-06-26T23:06:28.541Z,6.63
2019-06-26T23:08:58.941Z,6.50
2019-06-26T23:11:30.121Z,6.30
2019-06-26T23:14:01.092Z,6.63
2019-06-26T23:16:31.356Z,6.00
2019-06-26T23:19:01.470Z,6.70
2019-06-26T23:21:33.031Z,6.67
2019-06-26T23:24:08.466Z,6.67
2019-06-26T23:26:38.986Z,6.13
2019-06-26T23:29:09.987Z,6.20
2019-06-26T23:31:40.659Z,6.30
2019-06-26T23:34:12.005Z,6.20
2019-06-26T23:36:42.526Z,6.17
2019-06-26T23:39:12.786Z,6.83
2019-06-26T23:41:43.151Z,5.80
2019-06-26T23:44:14.251Z,6.10
2019-06-26T23:46:44.231Z,6.83
2019-06-26T23:49:14.814Z,6.73
2019-06-26T23:51:45.351Z,6.17
2019-06-26T23:54:15.234Z,6.17
2019-06-26T23:56:45.155Z,5.70
2019-06-26T23:59:15.368Z,5.97
